KATL

Hartsfield Jackson Atlanta International Airport

Code ICAO KATL
Code IATA ATL
Nom Hartsfield Jackson Atlanta International Airport
Emplacement Atlanta, Georgia, US
Élévation 1026 pieds / 312.7 mètres
Latitude 33.63669968
Longitude -84.42810059
METAR KATL 240552Z 27009KT 10SM SCT250 03/M06 A2997 RMK AO2 SLP154 T00331056 10061 20028 50000
Informations extras Afficher cartes et CFS
Afficher NOTAMS
Piste Longueur Largeur Surface Élévation
08L 9000 ft 150 ft CON 1015 ft
08R 10000 ft 150 ft CON 1024 ft
09L 11890 ft 150 ft CON 1019 ft
09R 9001 ft 150 ft CON 1026 ft
10 9000 ft 150 ft CON 1000 ft
26R 9000 ft 150 ft CON 990 ft
26L 10000 ft 150 ft CON 995 ft
27R 11890 ft 150 ft CON 978 ft
27L 9001 ft 150 ft CON 985 ft
28 9000 ft 150 ft CON 998 ft